createdAt,value
2022-09-29T00:00:15.730Z,100.00
2022-09-29T00:02:42.364Z,100.00
2022-09-29T00:05:09.156Z,100.00
2022-09-29T00:07:35.769Z,100.00
2022-09-29T00:10:02.331Z,100.00
2022-09-29T00:12:29.401Z,100.00
2022-09-29T00:14:56.047Z,100.00
2022-09-29T00:17:22.606Z,100.00
2022-09-29T00:19:49.163Z,100.00
2022-09-29T00:22:15.743Z,100.00
2022-09-29T00:24:42.307Z,100.00
2022-09-29T00:27:08.880Z,100.00
2022-09-29T00:29:35.448Z,100.00
2022-09-29T00:32:02.125Z,100.00
2022-09-29T00:34:28.787Z,100.00
2022-09-29T00:36:55.384Z,100.00
2022-09-29T00:39:22.013Z,100.00
2022-09-29T00:41:48.589Z,100.00
2022-09-29T00:44:15.205Z,100.00
2022-09-29T00:47:02.151Z,100.00
2022-09-29T00:49:40.816Z,100.00
2022-09-29T00:52:22.919Z,100.00
2022-09-29T00:54:58.276Z,100.00
2022-09-29T00:57:29.391Z,100.00
2022-09-29T01:00:07.339Z,100.00
2022-09-29T01:02:39.022Z,100.00
2022-09-29T01:05:11.424Z,100.00
2022-09-29T01:07:38.972Z,100.00
2022-09-29T01:10:06.857Z,100.00
2022-09-29T01:12:33.698Z,100.00
2022-09-29T01:15:01.072Z,100.00
2022-09-29T01:17:28.269Z,100.00
2022-09-29T01:20:04.797Z,100.00
2022-09-29T01:23:25.624Z,100.00
2022-09-29T01:25:57.899Z,100.00
2022-09-29T01:28:42.803Z,100.00
2022-09-29T01:31:12.246Z,100.00
2022-09-29T01:33:44.806Z,100.00
2022-09-29T01:36:17.576Z,100.00
2022-09-29T01:39:25.289Z,100.00
2022-09-29T01:42:07.223Z,100.00
2022-09-29T01:44:33.809Z,100.00
2022-09-29T01:47:06.132Z,100.00
2022-09-29T01:49:36.649Z,100.00
2022-09-29T01:52:08.716Z,100.00
2022-09-29T01:54:50.560Z,100.00
2022-09-29T01:57:31.546Z,100.00
2022-09-29T02:00:11.615Z,100.00
2022-09-29T02:02:41.587Z,100.00
2022-09-29T02:05:19.755Z,100.00
2022-09-29T02:07:48.166Z,100.00
2022-09-29T02:10:25.246Z,100.00
2022-09-29T02:12:54.156Z,100.00
2022-09-29T02:15:26.967Z,100.00
2022-09-29T02:17:58.047Z,100.00
2022-09-29T02:20:24.672Z,100.00
2022-09-29T02:22:51.371Z,100.00
2022-09-29T02:25:19.391Z,100.00
2022-09-29T02:27:49.936Z,100.00
2022-09-29T02:30:17.622Z,100.00
2022-09-29T02:32:44.328Z,100.00
2022-09-29T02:35:13.357Z,100.00
2022-09-29T02:37:39.936Z,100.00
2022-09-29T02:40:12.410Z,100.00
2022-09-29T02:42:45.048Z,100.00
2022-09-29T02:45:39.475Z,100.00
2022-09-29T02:48:24.588Z,100.00
2022-09-29T02:51:17.621Z,100.00
2022-09-29T02:54:23.172Z,100.00
2022-09-29T02:56:58.823Z,100.00
2022-09-29T02:59:31.456Z,100.00
2022-09-29T03:01:58.072Z,100.00
2022-09-29T03:04:27.851Z,100.00
2022-09-29T03:06:55.119Z,100.00
2022-09-29T03:09:21.812Z,100.00
2022-09-29T03:11:48.412Z,100.00
2022-09-29T03:14:15.096Z,100.00
2022-09-29T03:16:43.036Z,100.00
2022-09-29T03:19:09.775Z,100.00
2022-09-29T03:21:36.418Z,100.00
2022-09-29T03:24:03.284Z,100.00
2022-09-29T03:26:30.302Z,100.00
2022-09-29T03:28:57.252Z,100.00
2022-09-29T03:31:23.943Z,100.00
2022-09-29T03:33:51.036Z,100.00
2022-09-29T03:36:17.701Z,100.00
2022-09-29T03:38:45.582Z,100.00
2022-09-29T03:41:12.283Z,100.00
2022-09-29T03:43:38.898Z,100.00
2022-09-29T03:46:06.071Z,100.00
2022-09-29T03:48:35.108Z,100.00
2022-09-29T03:51:02.419Z,100.00
2022-09-29T03:53:28.997Z,100.00
2022-09-29T03:55:55.602Z,100.00
2022-09-29T03:58:22.206Z,100.00
2022-09-29T04:00:50.102Z,100.00
2022-09-29T04:03:16.956Z,100.00
2022-09-29T04:05:46.155Z,100.00
2022-09-29T04:08:13.294Z,100.00
2022-09-29T04:10:40.377Z,100.00
2022-09-29T04:13:08.398Z,100.00
2022-09-29T04:15:35.308Z,100.00
2022-09-29T04:18:01.854Z,100.00
2022-09-29T04:20:29.051Z,100.00
2022-09-29T04:22:55.863Z,100.00
2022-09-29T04:25:22.425Z,100.00
2022-09-29T04:27:49.014Z,100.00
2022-09-29T04:30:16.146Z,100.00
2022-09-29T04:32:42.964Z,100.00
2022-09-29T04:35:09.982Z,100.00
2022-09-29T04:37:36.818Z,100.00
2022-09-29T04:40:05.147Z,100.00
2022-09-29T04:42:31.894Z,100.00
2022-09-29T04:44:58.456Z,100.00
2022-09-29T04:47:25.019Z,100.00
2022-09-29T04:49:51.669Z,100.00
2022-09-29T04:52:18.280Z,100.00
2022-09-29T04:54:44.922Z,100.00
2022-09-29T04:57:11.559Z,100.00
2022-09-29T04:59:38.119Z,100.00
2022-09-29T05:02:04.753Z,100.00
2022-09-29T05:04:31.416Z,100.00
2022-09-29T05:06:58.013Z,100.00
2022-09-29T05:09:25.218Z,100.00
2022-09-29T05:11:52.511Z,100.00
2022-09-29T05:14:19.113Z,100.00
2022-09-29T05:16:45.732Z,100.00
2022-09-29T05:19:12.511Z,100.00
2022-09-29T05:21:39.274Z,100.00
2022-09-29T05:24:06.101Z,100.00
2022-09-29T05:26:32.764Z,100.00
2022-09-29T05:28:59.493Z,100.00
2022-09-29T05:31:26.160Z,100.00
2022-09-29T05:33:52.742Z,99.25
2022-09-29T05:36:19.443Z,91.16
2022-09-29T05:38:46.074Z,95.02
2022-09-29T05:41:13.755Z,97.34
2022-09-29T05:43:41.007Z,100.00
2022-09-29T05:46:10.144Z,100.00
2022-09-29T05:48:37.068Z,100.00
2022-09-29T05:51:12.658Z,100.00
2022-09-29T05:53:40.102Z,100.00
2022-09-29T05:56:12.208Z,99.28
2022-09-29T05:58:39.615Z,100.00
2022-09-29T06:01:08.521Z,100.00
2022-09-29T06:03:36.251Z,100.00
2022-09-29T06:06:07.969Z,100.00
2022-09-29T06:08:35.207Z,97.64
2022-09-29T06:11:07.107Z,100.00
2022-09-29T06:13:34.219Z,92.67
2022-09-29T06:16:01.707Z,95.81
2022-09-29T06:18:28.295Z,96.30
2022-09-29T06:21:00.988Z,93.56
2022-09-29T06:23:27.832Z,88.98
2022-09-29T06:25:58.638Z,91.17
2022-09-29T06:28:25.554Z,83.82
2022-09-29T06:30:52.150Z,80.03
2022-09-29T06:33:20.514Z,79.54
2022-09-29T06:36:07.095Z,78.95
2022-09-29T06:38:34.046Z,78.69
2022-09-29T06:41:01.593Z,76.86
2022-09-29T06:43:28.238Z,76.97
2022-09-29T06:45:54.999Z,73.41
2022-09-29T06:48:21.674Z,76.18
2022-09-29T06:50:55.641Z,76.20
2022-09-29T06:53:35.982Z,79.46
2022-09-29T06:56:04.381Z,81.52
2022-09-29T06:58:31.169Z,80.29
2022-09-29T07:01:01.793Z,81.46
2022-09-29T07:03:29.676Z,86.33
2022-09-29T07:06:18.400Z,87.94
2022-09-29T07:08:43.112Z,88.47
2022-09-29T07:11:10.746Z,88.12
2022-09-29T07:13:38.192Z,86.40
2022-09-29T07:16:10.716Z,82.86
2022-09-29T07:18:39.138Z,80.53
2022-09-29T07:21:07.331Z,80.45
2022-09-29T07:23:34.113Z,77.95
2022-09-29T07:26:00.798Z,78.99
2022-09-29T07:28:28.743Z,78.40
2022-09-29T07:31:13.084Z,79.54
2022-09-29T07:33:40.779Z,80.50
2022-09-29T07:36:07.950Z,82.91
2022-09-29T07:38:34.695Z,82.76
2022-09-29T07:41:02.940Z,83.68
2022-09-29T07:43:30.614Z,82.67
2022-09-29T07:45:58.139Z,83.00
2022-09-29T07:48:29.137Z,83.43
2022-09-29T07:51:02.772Z,77.41
2022-09-29T07:53:30.546Z,71.05
2022-09-29T07:56:03.031Z,71.02
2022-09-29T07:58:32.371Z,73.20
2022-09-29T08:00:59.728Z,68.07
2022-09-29T08:03:26.470Z,64.83
2022-09-29T08:05:54.194Z,66.27
2022-09-29T08:08:20.757Z,65.57
2022-09-29T08:10:53.465Z,64.89
2022-09-29T08:13:20.766Z,64.28
2022-09-29T08:15:47.703Z,61.93
2022-09-29T08:18:14.387Z,59.14
2022-09-29T08:20:41.172Z,56.09
2022-09-29T08:23:07.803Z,57.34
2022-09-29T08:25:36.299Z,56.56
2022-09-29T08:28:02.945Z,55.29
2022-09-29T08:30:29.893Z,52.44
2022-09-29T08:32:56.931Z,53.07
2022-09-29T08:35:23.613Z,55.83
2022-09-29T08:37:50.238Z,55.36
2022-09-29T08:40:17.846Z,54.96
2022-09-29T08:43:06.516Z,54.71
2022-09-29T08:45:43.325Z,53.36
2022-09-29T08:48:23.570Z,51.29
2022-09-29T08:50:59.708Z,49.39
2022-09-29T08:53:30.031Z,49.63
2022-09-29T08:56:09.793Z,47.08
2022-09-29T08:58:38.881Z,47.79
2022-09-29T09:01:33.151Z,48.14
2022-09-29T09:04:29.011Z,46.32
2022-09-29T09:07:14.637Z,46.47
2022-09-29T09:10:00.088Z,47.82
2022-09-29T09:12:51.988Z,46.78
2022-09-29T09:15:43.476Z,47.07
2022-09-29T09:18:38.111Z,48.52
2022-09-29T09:21:18.332Z,48.30
2022-09-29T09:24:24.876Z,49.10
2022-09-29T09:26:52.365Z,49.02
2022-09-29T09:29:30.672Z,48.61
2022-09-29T09:32:05.209Z,50.03
2022-09-29T09:34:43.188Z,47.64
2022-09-29T09:37:18.231Z,46.95
2022-09-29T09:39:52.198Z,46.03
2022-09-29T09:42:23.408Z,45.75
2022-09-29T09:44:55.293Z,45.67
2022-09-29T09:47:27.280Z,45.46
2022-09-29T09:50:14.035Z,44.47
2022-09-29T09:53:05.226Z,44.30
2022-09-29T09:55:36.886Z,42.88
2022-09-29T09:58:28.979Z,43.74
2022-09-29T10:00:58.514Z,44.22
2022-09-29T10:03:28.031Z,45.14
2022-09-29T10:05:55.073Z,45.09
2022-09-29T10:08:29.604Z,45.70
2022-09-29T10:10:59.448Z,45.79
2022-09-29T10:13:29.181Z,46.96
2022-09-29T10:16:20.877Z,45.18
2022-09-29T10:18:52.883Z,44.86
2022-09-29T10:21:34.492Z,44.60
2022-09-29T10:24:01.913Z,43.45
2022-09-29T10:26:43.386Z,44.78
2022-09-29T10:29:19.162Z,44.39
2022-09-29T10:32:01.569Z,43.78
2022-09-29T10:34:30.753Z,46.01
2022-09-29T10:36:59.638Z,45.52
2022-09-29T10:39:40.277Z,44.46
2022-09-29T10:42:31.683Z,44.41
2022-09-29T10:45:14.135Z,44.21
2022-09-29T10:47:42.863Z,43.53
2022-09-29T10:50:20.197Z,42.25
2022-09-29T10:52:59.573Z,43.24
2022-09-29T10:55:30.379Z,43.46
2022-09-29T10:58:00.163Z,43.14
2022-09-29T11:00:35.264Z,41.75
2022-09-29T11:03:16.147Z,41.97
2022-09-29T11:05:59.752Z,41.86
2022-09-29T11:08:27.908Z,42.96
2022-09-29T11:11:21.281Z,41.15
2022-09-29T11:13:48.037Z,41.28
2022-09-29T11:16:23.852Z,40.62
2022-09-29T11:18:53.705Z,40.79
2022-09-29T11:21:20.201Z,40.10
2022-09-29T11:24:27.439Z,39.99
2022-09-29T11:27:27.690Z,41.43
2022-09-29T11:30:08.190Z,40.24
2022-09-29T11:33:15.125Z,40.41
2022-09-29T11:35:47.631Z,41.52
2022-09-29T11:38:35.404Z,40.30
2022-09-29T11:41:30.453Z,40.86
2022-09-29T11:44:04.017Z,40.59
2022-09-29T11:46:53.453Z,41.23
2022-09-29T11:49:57.637Z,39.85
2022-09-29T11:52:33.190Z,40.51
2022-09-29T11:55:18.444Z,41.38
2022-09-29T11:57:45.147Z,41.04
2022-09-29T12:00:13.752Z,39.38
2022-09-29T12:02:49.732Z,39.63
2022-09-29T12:05:19.711Z,41.10
2022-09-29T12:08:22.974Z,40.45
2022-09-29T12:11:23.733Z,41.51
2022-09-29T12:13:56.283Z,40.39
2022-09-29T12:16:28.857Z,40.14
2022-09-29T12:19:20.329Z,41.29
2022-09-29T12:21:53.519Z,40.92
2022-09-29T12:24:32.617Z,40.87
2022-09-29T12:27:02.245Z,41.50
2022-09-29T12:29:52.039Z,41.59
2022-09-29T12:32:26.041Z,42.38
2022-09-29T12:34:55.762Z,42.45
2022-09-29T12:37:39.551Z,43.47
2022-09-29T12:40:17.157Z,42.31
2022-09-29T12:42:55.996Z,42.87
2022-09-29T12:45:35.000Z,42.42
2022-09-29T12:48:30.307Z,43.10
2022-09-29T12:51:12.147Z,43.74
2022-09-29T12:54:08.980Z,43.27
2022-09-29T12:57:01.256Z,43.13
2022-09-29T12:59:33.205Z,41.71
2022-09-29T13:02:08.899Z,41.80
2022-09-29T13:05:16.984Z,43.24
2022-09-29T13:08:28.090Z,43.60
2022-09-29T13:11:13.632Z,42.90
2022-09-29T13:14:04.550Z,43.42
2022-09-29T13:16:55.147Z,43.45
2022-09-29T13:19:58.840Z,44.66
2022-09-29T13:22:46.290Z,45.47
2022-09-29T13:25:15.725Z,45.51
2022-09-29T13:27:45.614Z,45.11
2022-09-29T13:30:12.963Z,44.61
2022-09-29T13:32:43.372Z,44.57
2022-09-29T13:35:18.354Z,45.76
2022-09-29T13:38:06.291Z,45.25
2022-09-29T13:40:33.330Z,45.78
2022-09-29T13:43:03.208Z,44.78
2022-09-29T13:45:34.407Z,45.54
2022-09-29T13:48:22.598Z,45.68
2022-09-29T13:50:59.569Z,46.21
2022-09-29T13:53:35.671Z,46.35
2022-09-29T13:56:02.265Z,46.13
2022-09-29T13:58:32.859Z,45.19
2022-09-29T14:01:02.133Z,46.21
2022-09-29T14:03:43.024Z,46.84
2022-09-29T14:06:41.470Z,46.25
2022-09-29T14:09:16.417Z,45.80
2022-09-29T14:11:49.461Z,47.46
2022-09-29T14:14:24.455Z,49.08
2022-09-29T14:17:06.392Z,50.66
2022-09-29T14:19:34.546Z,51.74
2022-09-29T14:22:04.297Z,53.55
2022-09-29T14:24:41.138Z,54.28
2022-09-29T14:27:40.189Z,55.15
2022-09-29T14:30:09.681Z,55.66
2022-09-29T14:32:59.185Z,54.92
2022-09-29T14:35:33.725Z,55.06
2022-09-29T14:38:25.528Z,53.31
2022-09-29T14:41:01.282Z,54.37
2022-09-29T14:43:41.829Z,54.23
2022-09-29T14:46:51.885Z,55.86
2022-09-29T14:49:52.251Z,56.75
2022-09-29T14:52:40.399Z,57.78
2022-09-29T14:55:17.615Z,58.93
2022-09-29T14:58:09.652Z,67.77
2022-09-29T15:00:49.589Z,76.14
2022-09-29T15:03:28.468Z,88.92
2022-09-29T15:06:16.578Z,100.00
2022-09-29T15:09:23.842Z,100.00
2022-09-29T15:11:53.418Z,100.00
2022-09-29T15:14:27.693Z,100.00
2022-09-29T15:17:06.018Z,100.00
2022-09-29T15:19:55.629Z,100.00
2022-09-29T15:22:56.686Z,100.00
2022-09-29T15:25:35.493Z,100.00
2022-09-29T15:28:06.622Z,100.00
2022-09-29T15:30:35.045Z,100.00
2022-09-29T15:33:10.702Z,100.00
2022-09-29T15:35:44.591Z,100.00
2022-09-29T15:38:11.123Z,100.00
2022-09-29T15:40:37.845Z,100.00
2022-09-29T15:43:23.524Z,100.00
2022-09-29T15:45:58.162Z,100.00
2022-09-29T15:48:27.122Z,100.00
2022-09-29T15:50:55.726Z,100.00
2022-09-29T15:53:28.441Z,100.00
2022-09-29T15:55:55.726Z,100.00
2022-09-29T15:58:31.296Z,100.00
2022-09-29T16:01:08.507Z,100.00
2022-09-29T16:03:44.792Z,100.00
2022-09-29T16:06:28.485Z,100.00
2022-09-29T16:09:01.393Z,100.00
2022-09-29T16:11:34.550Z,100.00
2022-09-29T16:14:09.391Z,100.00
2022-09-29T16:16:41.491Z,100.00
2022-09-29T16:19:20.845Z,100.00
2022-09-29T16:21:54.705Z,100.00
2022-09-29T16:24:23.282Z,100.00
2022-09-29T16:26:55.158Z,100.00
2022-09-29T16:29:27.706Z,100.00
2022-09-29T16:31:55.446Z,100.00
2022-09-29T16:34:22.339Z,100.00
2022-09-29T16:37:03.659Z,100.00
2022-09-29T16:39:42.279Z,100.00
2022-09-29T16:42:21.576Z,100.00
2022-09-29T16:44:51.979Z,100.00
2022-09-29T16:47:24.072Z,100.00
2022-09-29T16:49:53.813Z,100.00
2022-09-29T16:52:20.569Z,100.00
2022-09-29T16:54:47.909Z,100.00
2022-09-29T16:57:22.722Z,100.00
2022-09-29T16:59:52.806Z,100.00
2022-09-29T17:02:20.313Z,100.00
2022-09-29T17:04:46.956Z,100.00
2022-09-29T17:07:16.379Z,100.00
2022-09-29T17:09:48.703Z,100.00
2022-09-29T17:12:17.384Z,100.00
2022-09-29T17:14:46.735Z,100.00
2022-09-29T17:17:25.498Z,100.00
2022-09-29T17:19:53.542Z,100.00
2022-09-29T17:22:34.568Z,100.00
2022-09-29T17:25:01.482Z,100.00
2022-09-29T17:27:47.655Z,100.00
2022-09-29T17:30:18.886Z,100.00
2022-09-29T17:32:46.871Z,100.00
2022-09-29T17:35:14.809Z,100.00
2022-09-29T17:37:44.161Z,100.00
2022-09-29T17:40:20.090Z,100.00
2022-09-29T17:42:49.407Z,100.00
2022-09-29T17:45:18.179Z,100.00
2022-09-29T17:47:46.389Z,100.00
2022-09-29T17:50:23.443Z,100.00
2022-09-29T17:52:50.324Z,100.00
2022-09-29T17:55:17.278Z,100.00
2022-09-29T17:57:45.657Z,100.00
2022-09-29T18:00:19.310Z,100.00
2022-09-29T18:02:46.139Z,100.00
2022-09-29T18:05:13.839Z,100.00
2022-09-29T18:07:41.681Z,100.00
2022-09-29T18:10:19.893Z,100.00
2022-09-29T18:12:46.624Z,100.00
2022-09-29T18:15:13.393Z,100.00
2022-09-29T18:17:39.956Z,100.00
2022-09-29T18:20:14.361Z,100.00
2022-09-29T18:22:41.941Z,100.00
2022-09-29T18:25:09.874Z,100.00
2022-09-29T18:27:36.890Z,100.00
2022-09-29T18:30:19.593Z,100.00
2022-09-29T18:32:48.679Z,100.00
2022-09-29T18:35:19.037Z,100.00
2022-09-29T18:37:45.993Z,100.00
2022-09-29T18:40:13.253Z,100.00
2022-09-29T18:42:44.583Z,100.00
2022-09-29T18:45:22.875Z,100.00
2022-09-29T18:47:55.125Z,100.00
2022-09-29T18:50:39.212Z,100.00
2022-09-29T18:53:06.229Z,100.00
2022-09-29T18:55:33.136Z,100.00
2022-09-29T18:58:00.612Z,100.00
2022-09-29T19:00:31.216Z,100.00
2022-09-29T19:03:00.038Z,100.00
2022-09-29T19:05:31.919Z,100.00
2022-09-29T19:08:01.308Z,100.00
2022-09-29T19:10:33.470Z,100.00
2022-09-29T19:13:04.162Z,100.00
2022-09-29T19:15:34.581Z,100.00
2022-09-29T19:18:02.744Z,100.00
2022-09-29T19:20:30.086Z,100.00
2022-09-29T19:23:02.758Z,100.00
2022-09-29T19:25:33.292Z,100.00
2022-09-29T19:28:04.229Z,100.00
2022-09-29T19:30:33.416Z,100.00
2022-09-29T19:33:00.122Z,100.00
2022-09-29T19:35:29.045Z,100.00
2022-09-29T19:37:59.106Z,100.00
2022-09-29T19:40:30.060Z,100.00
2022-09-29T19:42:58.615Z,100.00
2022-09-29T19:45:26.620Z,100.00
2022-09-29T19:47:57.100Z,100.00
2022-09-29T19:50:43.777Z,100.00
2022-09-29T19:53:10.576Z,100.00
2022-09-29T19:55:40.185Z,100.00
2022-09-29T19:58:07.430Z,100.00
2022-09-29T20:00:34.965Z,100.00
2022-09-29T20:03:01.792Z,100.00
2022-09-29T20:05:28.495Z,100.00
2022-09-29T20:07:55.239Z,100.00
2022-09-29T20:10:22.555Z,100.00
2022-09-29T20:12:49.265Z,100.00
2022-09-29T20:15:16.279Z,100.00
2022-09-29T20:17:44.218Z,100.00
2022-09-29T20:20:11.855Z,100.00
2022-09-29T20:22:39.106Z,100.00
2022-09-29T20:25:08.029Z,100.00
2022-09-29T20:27:35.830Z,100.00
2022-09-29T20:30:05.210Z,100.00
2022-09-29T20:32:32.014Z,100.00
2022-09-29T20:34:58.546Z,100.00
2022-09-29T20:37:27.164Z,100.00
2022-09-29T20:39:54.849Z,100.00
2022-09-29T20:42:22.088Z,100.00
2022-09-29T20:44:55.014Z,100.00
2022-09-29T20:47:25.642Z,100.00
2022-09-29T20:49:55.003Z,100.00
2022-09-29T20:52:22.956Z,100.00
2022-09-29T20:54:49.948Z,100.00
2022-09-29T20:57:17.362Z,100.00
2022-09-29T20:59:44.204Z,100.00
2022-09-29T21:02:12.438Z,100.00
2022-09-29T21:04:39.826Z,100.00
2022-09-29T21:07:26.567Z,100.00
2022-09-29T21:09:53.609Z,100.00
2022-09-29T21:12:20.710Z,100.00
2022-09-29T21:14:47.537Z,100.00
2022-09-29T21:17:14.147Z,100.00
2022-09-29T21:19:40.734Z,100.00
2022-09-29T21:22:07.332Z,100.00
2022-09-29T21:24:34.811Z,100.00
2022-09-29T21:27:01.426Z,100.00
2022-09-29T21:29:28.696Z,100.00
2022-09-29T21:31:55.452Z,100.00
2022-09-29T21:34:22.171Z,100.00
2022-09-29T21:36:49.028Z,100.00
2022-09-29T21:39:17.028Z,100.00
2022-09-29T21:41:45.143Z,100.00
2022-09-29T21:44:20.758Z,100.00
2022-09-29T21:46:47.783Z,100.00
2022-09-29T21:49:16.490Z,100.00
2022-09-29T21:51:48.990Z,100.00
2022-09-29T21:54:18.258Z,100.00
2022-09-29T21:56:46.874Z,100.00
2022-09-29T21:59:16.038Z,100.00
2022-09-29T22:01:44.121Z,100.00
2022-09-29T22:04:11.671Z,100.00
2022-09-29T22:06:39.923Z,100.00
2022-09-29T22:09:08.582Z,100.00
2022-09-29T22:11:38.813Z,100.00
2022-09-29T22:14:06.241Z,100.00
2022-09-29T22:16:34.736Z,100.00
2022-09-29T22:19:23.810Z,100.00
2022-09-29T22:21:51.068Z,100.00
2022-09-29T22:24:17.668Z,100.00
2022-09-29T22:26:44.273Z,100.00
2022-09-29T22:29:11.547Z,100.00
2022-09-29T22:31:40.630Z,100.00
2022-09-29T22:34:08.360Z,100.00
2022-09-29T22:36:35.534Z,100.00
2022-09-29T22:39:04.136Z,100.00
2022-09-29T22:41:31.077Z,100.00
2022-09-29T22:43:59.668Z,100.00
2022-09-29T22:46:28.843Z,100.00
2022-09-29T22:48:56.463Z,100.00
2022-09-29T22:51:23.152Z,100.00
2022-09-29T22:53:50.131Z,100.00
2022-09-29T22:56:19.359Z,100.00
2022-09-29T22:58:46.087Z,100.00
2022-09-29T23:01:15.361Z,100.00
2022-09-29T23:03:44.076Z,100.00
2022-09-29T23:06:11.443Z,100.00
2022-09-29T23:08:38.313Z,100.00
2022-09-29T23:11:06.333Z,100.00
2022-09-29T23:13:36.705Z,100.00
2022-09-29T23:16:09.646Z,100.00
2022-09-29T23:18:43.813Z,100.00
2022-09-29T23:21:12.199Z,100.00
2022-09-29T23:23:38.889Z,100.00
2022-09-29T23:26:05.883Z,100.00
2022-09-29T23:28:32.575Z,100.00
2022-09-29T23:31:04.360Z,100.00
2022-09-29T23:33:31.467Z,100.00
2022-09-29T23:36:09.086Z,100.00
2022-09-29T23:38:55.754Z,100.00
2022-09-29T23:41:22.397Z,100.00
2022-09-29T23:43:48.957Z,100.00
2022-09-29T23:46:15.734Z,100.00
2022-09-29T23:48:42.350Z,100.00
2022-09-29T23:51:09.199Z,100.00
2022-09-29T23:53:35.986Z,100.00
2022-09-29T23:56:02.717Z,100.00
2022-09-29T23:58:29.409Z,100.00
